Time;durP1;ratioP1;P1;durP2;ratioP2;P2;SDS_P1;SDS_P2;PMS_P1;PMS_P2;Temp;Humidity;BMP_temperature;BMP_pressure;BME280_temperature;BME280_humidity;BME280_pressure;Samples;Min_cycle;Max_cycle;Signal;HPM_P1;HPM_P2
2022/10/09 00:01:15;;;;;;;7.68;5.75;;;17.80;96.70;;;;;;5086675;28;20047;-76
2022/10/09 00:03:45;;;;;;;7.95;6.05;;;17.80;96.70;;;;;;5087317;28;20070;-76
2022/10/09 00:06:14;;;;;;;8.02;5.93;;;17.70;96.70;;;;;;5087158;28;20150;-76
2022/10/09 00:08:42;;;;;;;9.35;5.35;;;17.70;96.70;;;;;;5082848;28;20102;-76
2022/10/09 00:11:12;;;;;;;13.52;6.28;;;17.80;96.70;;;;;;5085910;28;20075;-77
2022/10/09 00:13:42;;;;;;;14.80;7.57;;;17.80;96.70;;;;;;5085041;28;20042;-76
2022/10/09 00:16:11;;;;;;;13.35;6.60;;;17.80;96.70;;;;;;5085543;28;20048;-76
2022/10/09 00:18:40;;;;;;;16.40;7.28;;;17.80;96.70;;;;;;5082851;28;20537;-77
2022/10/09 00:21:18;;;;;;;14.40;6.80;;;17.90;96.70;;;;;;5087046;28;20055;-76
2022/10/09 00:23:46;;;;;;;10.15;6.55;;;17.80;96.70;;;;;;5081138;28;20040;-76
2022/10/09 00:26:16;;;;;;;10.25;6.32;;;17.80;96.70;;;;;;5085950;28;20043;-76
2022/10/09 00:28:45;;;;;;;11.10;5.57;;;17.70;96.70;;;;;;5084947;28;20494;-76
2022/10/09 00:31:15;;;;;;;7.03;5.05;;;17.70;96.70;;;;;;5085442;28;20048;-77
2022/10/09 00:33:44;;;;;;;7.78;5.20;;;17.80;96.70;;;;;;5080530;28;20051;-76
2022/10/09 00:36:14;;;;;;;6.28;4.45;;;17.80;96.70;;;;;;5068981;28;20040;-75
2022/10/09 00:38:43;;;;;;;4.97;4.13;;;17.80;96.70;;;;;;5085497;28;20036;-77
2022/10/09 00:41:15;;;;;;;8.10;4.80;;;17.80;96.70;;;;;;5087215;28;20044;-76
2022/10/09 00:43:47;;;;;;;6.43;4.35;;;17.80;96.70;;;;;;5084226;28;20048;-77
2022/10/09 00:46:29;;;;;;;6.72;5.03;;;17.80;96.70;;;;;;5084398;28;20044;-76
2022/10/09 00:49:12;;;;;;;7.40;4.45;;;17.90;96.70;;;;;;5063848;28;20066;-76
2022/10/09 00:51:43;;;;;;;8.10;4.80;;;17.90;96.70;;;;;;5069134;28;20105;-76
2022/10/09 00:54:14;;;;;;;7.15;4.90;;;17.90;96.70;;;;;;5084627;28;20148;-76
2022/10/09 00:56:42;;;;;;;7.78;5.10;;;17.90;96.70;;;;;;5085575;28;20040;-75
2022/10/09 00:59:13;;;;;;;6.55;4.78;;;17.80;96.70;;;;;;5085638;28;20134;-76
2022/10/09 01:01:41;;;;;;;8.50;5.78;;;17.80;96.70;;;;;;5085762;28;20035;-76
2022/10/09 01:04:09;;;;;;;12.98;5.85;;;17.80;96.70;;;;;;5083939;28;20052;-76
2022/10/09 01:06:52;;;;;;;8.32;6.13;;;17.70;96.70;;;;;;5085825;28;20078;-75
2022/10/09 01:09:24;;;;;;;11.23;5.55;;;17.70;96.70;;;;;;5079286;28;20117;-75
2022/10/09 01:11:58;;;;;;;12.98;6.72;;;17.80;96.70;;;;;;5084529;28;20579;-75
2022/10/09 01:14:31;;;;;;;9.90;6.57;;;17.80;96.70;;;;;;5067411;28;20277;-76
2022/10/09 01:17:06;;;;;;;10.30;6.18;;;17.70;96.70;;;;;;5077347;28;20412;-76
2022/10/09 01:20:10;;;;;;;9.68;6.68;;;17.60;96.70;;;;;;5085775;28;20044;-76
2022/10/09 01:22:52;;;;;;;12.10;7.78;;;17.60;96.70;;;;;;5082505;28;20082;-76
2022/10/09 01:25:27;;;;;;;12.45;6.75;;;17.60;96.70;;;;;;5081470;28;20752;-76
2022/10/09 01:27:59;;;;;;;10.98;6.72;;;17.60;96.70;;;;;;5082981;28;20579;-76
2022/10/09 01:30:27;;;;;;;8.25;4.90;;;17.60;96.70;;;;;;5082496;28;20041;-76
2022/10/09 01:32:56;;;;;;;8.95;5.00;;;17.60;96.70;;;;;;5084757;28;20044;-76
2022/10/09 01:35:25;;;;;;;4.88;3.67;;;17.50;96.70;;;;;;5082255;28;20047;-76
2022/10/09 01:37:55;;;;;;;6.07;3.78;;;17.50;96.70;;;;;;5076970;28;20479;-76
2022/10/09 01:40:25;;;;;;;3.35;3.05;;;17.50;96.70;;;;;;5067004;28;20409;-76
2022/10/09 01:42:57;;;;;;;5.90;2.92;;;17.50;96.70;;;;;;5084842;28;20075;-75
2022/10/09 01:45:34;;;;;;;4.68;3.05;;;17.50;96.70;;;;;;5085095;28;20501;-76
2022/10/09 01:48:02;;;;;;;5.93;3.63;;;17.50;96.70;;;;;;5083725;28;20935;-76
2022/10/09 01:50:34;;;;;;;5.78;3.47;;;17.50;96.70;;;;;;5085305;28;20040;-76
2022/10/09 01:53:09;;;;;;;4.57;3.00;;;17.50;96.70;;;;;;5084298;28;20043;-76
2022/10/09 01:55:42;;;;;;;5.20;3.78;;;17.50;96.70;;;;;;5092801;28;20513;-76
2022/10/09 01:58:17;;;;;;;5.57;4.18;;;17.50;96.70;;;;;;5085163;28;20036;-76
2022/10/09 02:00:48;;;;;;;5.85;4.10;;;17.50;96.70;;;;;;5082688;28;20044;-76
2022/10/09 02:03:18;;;;;;;11.23;4.65;;;17.50;96.70;;;;;;5084286;28;20056;-76
2022/10/09 02:05:48;;;;;;;5.70;4.65;;;17.40;96.70;;;;;;5083779;28;20040;-76
2022/10/09 02:08:19;;;;;;;9.75;5.53;;;17.40;96.70;;;;;;5083513;28;20050;-76
2022/10/09 02:10:49;;;;;;;7.55;4.53;;;17.40;96.70;;;;;;5084999;28;20047;-76
2022/10/09 02:13:21;;;;;;;8.57;5.18;;;17.40;96.70;;;;;;5079786;28;20167;-76
2022/10/09 02:15:52;;;;;;;8.40;5.05;;;17.30;96.70;;;;;;5084837;28;20051;-76
2022/10/09 02:18:27;;;;;;;9.23;5.10;;;17.30;96.70;;;;;;5065492;28;20060;-76
2022/10/09 02:20:59;;;;;;;8.73;5.20;;;17.30;96.70;;;;;;5082896;28;20118;-77
2022/10/09 02:23:27;;;;;;;6.85;4.70;;;17.30;96.70;;;;;;5083286;28;20529;-77
2022/10/09 02:25:56;;;;;;;5.47;4.60;;;17.40;96.70;;;;;;5078868;28;20775;-75
2022/10/09 02:28:25;;;;;;;8.85;4.38;;;17.40;96.70;;;;;;5080565;28;20047;-76
2022/10/09 02:31:00;;;;;;;6.28;4.47;;;17.40;96.70;;;;;;5084654;28;20052;-76
2022/10/09 02:33:31;;;;;;;6.28;4.93;;;17.40;96.70;;;;;;5085756;28;20051;-77
2022/10/09 02:35:59;;;;;;;6.13;4.13;;;17.30;96.70;;;;;;5083506;28;20138;-77
2022/10/09 02:38:27;;;;;;;8.98;5.65;;;17.20;96.70;;;;;;5080354;28;20044;-76
2022/10/09 02:40:57;;;;;;;7.47;5.80;;;17.30;96.70;;;;;;5084415;28;20093;-77
2022/10/09 02:43:27;;;;;;;8.63;6.47;;;17.30;96.70;;;;;;5079728;28;20063;-76
2022/10/09 02:45:55;;;;;;;8.63;6.60;;;17.20;96.70;;;;;;5081135;28;20041;-76
2022/10/09 02:48:23;;;;;;;8.90;6.32;;;17.20;96.70;;;;;;5082125;28;20482;-76
2022/10/09 02:50:53;;;;;;;9.15;6.65;;;17.20;96.70;;;;;;5084348;28;20486;-75
2022/10/09 02:53:24;;;;;;;6.97;5.93;;;17.20;96.70;;;;;;5080084;28;20056;-76
2022/10/09 02:55:51;;;;;;;9.45;7.10;;;17.20;96.70;;;;;;5081799;28;20072;-76
2022/10/09 02:58:19;;;;;;;7.63;6.80;;;17.20;96.70;;;;;;5081728;28;20052;-77
2022/10/09 03:00:50;;;;;;;9.38;7.20;;;17.20;96.70;;;;;;5082329;28;20054;-76
2022/10/09 03:03:19;;;;;;;8.05;7.25;;;17.20;96.70;;;;;;5081041;28;20063;-77
2022/10/09 03:05:47;;;;;;;9.13;7.70;;;17.20;96.70;;;;;;5083729;28;20156;-77
2022/10/09 03:08:15;;;;;;;10.13;7.93;;;17.20;96.70;;;;;;5081113;28;20651;-77
2022/10/09 03:10:43;;;;;;;10.40;7.70;;;17.30;96.70;;;;;;5065686;28;20063;-76
2022/10/09 03:13:11;;;;;;;8.25;7.20;;;17.30;96.70;;;;;;5079971;28;20171;-76
2022/10/09 03:15:39;;;;;;;9.05;7.68;;;17.40;96.70;;;;;;5075824;28;20168;-77
2022/10/09 03:18:08;;;;;;;9.57;7.72;;;17.40;96.70;;;;;;5081341;28;20478;-77
2022/10/09 03:20:37;;;;;;;10.85;8.18;;;17.40;96.70;;;;;;5081814;28;20068;-77
2022/10/09 03:23:05;;;;;;;10.55;8.38;;;17.40;96.70;;;;;;5075668;28;20044;-77
2022/10/09 03:25:33;;;;;;;10.00;7.88;;;17.40;96.70;;;;;;5082217;28;20050;-76
2022/10/09 03:28:01;;;;;;;12.02;7.85;;;17.30;96.70;;;;;;5081407;28;20047;-77
2022/10/09 03:30:29;;;;;;;13.10;8.20;;;17.30;96.70;;;;;;5065614;28;20044;-76
2022/10/09 03:33:01;;;;;;;12.45;8.65;;;17.30;96.70;;;;;;5081663;28;20052;-76
2022/10/09 03:35:30;;;;;;;11.63;7.43;;;17.30;96.70;;;;;;5083316;28;20509;-77
2022/10/09 03:37:59;;;;;;;9.80;6.63;;;17.30;96.70;;;;;;5082281;28;20339;-76
2022/10/09 03:40:27;;;;;;;9.38;7.38;;;17.30;96.70;;;;;;5082149;28;20394;-77
2022/10/09 03:42:55;;;;;;;7.57;6.38;;;17.20;96.70;;;;;;5078685;28;20047;-77
2022/10/09 03:45:22;;;;;;;11.07;6.47;;;17.20;96.70;;;;;;5073093;28;20117;-76
2022/10/09 03:47:50;;;;;;;6.82;5.80;;;17.20;96.70;;;;;;5066741;28;20044;-77
2022/10/09 03:50:18;;;;;;;7.90;6.25;;;17.20;96.70;;;;;;5083166;28;20040;-76
2022/10/09 03:52:47;;;;;;;11.15;6.03;;;17.20;96.70;;;;;;5081897;28;20042;-77
2022/10/09 03:55:16;;;;;;;7.72;5.55;;;17.30;96.70;;;;;;5081673;28;20036;-77
2022/10/09 03:57:44;;;;;;;7.15;5.25;;;17.30;96.70;;;;;;5081876;28;20059;-77
2022/10/09 04:00:13;;;;;;;5.75;4.75;;;17.30;96.70;;;;;;5081791;28;20118;-79
2022/10/09 04:02:41;;;;;;;7.50;4.60;;;17.30;96.70;;;;;;5082095;28;20497;-79
2022/10/09 04:05:09;;;;;;;6.88;4.47;;;17.30;96.70;;;;;;5082049;28;20063;-78
2022/10/09 04:07:37;;;;;;;6.20;4.68;;;17.20;96.70;;;;;;5062941;28;20440;-79
2022/10/09 04:10:07;;;;;;;4.60;3.13;;;17.20;96.70;;;;;;5077681;28;20036;-78
2022/10/09 04:12:35;;;;;;;5.97;4.15;;;17.20;96.70;;;;;;5075865;28;21475;-79
2022/10/09 04:15:03;;;;;;;5.68;3.80;;;17.20;96.70;;;;;;5077772;28;20071;-78
2022/10/09 04:17:31;;;;;;;7.53;4.90;;;17.20;96.70;;;;;;5063582;28;20070;-78
2022/10/09 04:19:59;;;;;;;6.53;4.93;;;17.10;96.70;;;;;;5081349;28;20046;-78
2022/10/09 04:22:27;;;;;;;7.63;4.40;;;17.00;96.70;;;;;;5081205;28;20518;-80
2022/10/09 04:24:55;;;;;;;11.20;5.22;;;17.00;96.70;;;;;;5080348;28;20506;-78
2022/10/09 04:27:24;;;;;;;7.03;4.70;;;17.00;96.70;;;;;;5078320;28;20750;-79
2022/10/09 04:29:52;;;;;;;5.45;4.22;;;17.00;96.70;;;;;;5080100;28;20520;-78
2022/10/09 04:32:20;;;;;;;6.47;4.65;;;17.00;96.70;;;;;;5082762;28;20515;-79
2022/10/09 04:34:48;;;;;;;7.25;4.05;;;17.10;96.70;;;;;;5085301;28;20067;-80
2022/10/09 04:37:16;;;;;;;7.15;4.28;;;17.10;96.70;;;;;;5082040;28;20635;-79
2022/10/09 04:39:44;;;;;;;7.57;4.53;;;17.20;96.70;;;;;;5093372;28;20502;-79
2022/10/09 04:42:13;;;;;;;5.63;4.10;;;17.30;96.70;;;;;;5082548;28;20044;-79
2022/10/09 04:44:42;;;;;;;10.60;3.92;;;17.30;96.70;;;;;;5085334;28;20849;-78
2022/10/09 04:47:10;;;;;;;5.15;3.88;;;17.30;96.70;;;;;;5060665;28;20048;-78
2022/10/09 04:49:38;;;;;;;7.32;4.35;;;17.30;96.70;;;;;;5078086;28;20064;-78
2022/10/09 04:52:06;;;;;;;4.88;3.88;;;17.30;96.70;;;;;;5084973;28;20506;-79
2022/10/09 04:54:34;;;;;;;6.88;4.47;;;17.30;96.70;;;;;;5084754;28;20032;-78
2022/10/09 04:57:02;;;;;;;5.45;3.40;;;17.30;96.70;;;;;;5086339;28;20409;-79
2022/10/09 04:59:30;;;;;;;6.93;4.00;;;17.20;96.70;;;;;;5084065;28;20039;-78
2022/10/09 05:02:00;;;;;;;5.43;3.85;;;17.20;96.70;;;;;;5086036;28;20531;-80
2022/10/09 05:04:28;;;;;;;6.10;3.83;;;17.20;96.70;;;;;;5081138;28;20036;-81
2022/10/09 05:06:56;;;;;;;5.82;4.05;;;17.20;96.70;;;;;;5082763;28;20062;-78
2022/10/09 05:09:24;;;;;;;5.18;3.80;;;17.10;96.70;;;;;;5083723;28;20044;-76
2022/10/09 05:11:53;;;;;;;4.95;4.32;;;17.10;96.70;;;;;;5067254;28;21557;-77
2022/10/09 05:14:21;;;;;;;4.95;3.30;;;17.10;96.70;;;;;;5084486;28;20555;-76
2022/10/09 05:16:53;;;;;;;5.88;5.13;;;17.10;96.70;;;;;;5080870;28;20143;-77
2022/10/09 05:19:42;;;;;;;11.20;7.57;;;17.00;96.70;;;;;;5086109;28;20366;-77
2022/10/09 05:22:10;;;;;;;10.55;7.80;;;17.00;96.70;;;;;;5082558;28;20045;-77
2022/10/09 05:24:38;;;;;;;11.50;8.80;;;16.90;96.70;;;;;;5080603;28;20055;-77
2022/10/09 05:27:06;;;;;;;12.48;9.70;;;16.80;96.70;;;;;;5066674;28;20093;-77
2022/10/09 05:29:34;;;;;;;11.65;8.23;;;16.80;96.70;;;;;;5084105;28;20113;-77
2022/10/09 05:32:02;;;;;;;7.88;5.32;;;16.60;96.70;;;;;;5084367;28;20048;-77
2022/10/09 05:34:30;;;;;;;8.45;4.93;;;16.40;96.70;;;;;;5079828;28;20040;-76
2022/10/09 05:37:00;;;;;;;6.03;4.45;;;16.40;96.70;;;;;;5065842;28;20074;-77
2022/10/09 05:39:28;;;;;;;7.95;4.70;;;16.40;96.70;;;;;;5066655;28;20215;-77
2022/10/09 05:41:56;;;;;;;5.88;4.70;;;16.50;96.70;;;;;;5084133;28;20042;-77
2022/10/09 05:44:24;;;;;;;6.43;4.30;;;16.70;96.70;;;;;;5084358;28;20044;-77
2022/10/09 05:46:52;;;;;;;5.53;4.47;;;16.80;96.70;;;;;;5083833;28;20044;-77
2022/10/09 05:49:20;;;;;;;9.02;4.85;;;16.90;96.70;;;;;;5084587;28;20053;-77
2022/10/09 05:51:48;;;;;;;6.70;4.50;;;16.90;96.70;;;;;;5081077;28;20101;-77
2022/10/09 05:54:18;;;;;;;6.78;5.43;;;17.00;96.70;;;;;;5083709;28;20048;-77
2022/10/09 05:56:46;;;;;;;7.18;4.82;;;17.00;96.70;;;;;;5079229;28;20102;-77
2022/10/09 05:59:18;;;;;;;7.32;5.45;;;17.00;96.70;;;;;;5082998;28;20036;-77
2022/10/09 06:01:48;;;;;;;6.70;5.18;;;17.00;96.70;;;;;;5084362;28;20878;-77
2022/10/09 06:04:18;;;;;;;8.07;5.55;;;17.00;96.70;;;;;;5084882;28;20040;-77
2022/10/09 06:06:47;;;;;;;8.85;5.85;;;17.00;96.70;;;;;;5076008;28;20036;-77
2022/10/09 06:09:18;;;;;;;7.38;5.90;;;17.10;96.70;;;;;;5079954;28;20522;-77
2022/10/09 06:11:46;;;;;;;8.63;5.80;;;17.20;96.70;;;;;;5084698;28;20085;-77
2022/10/09 06:14:14;;;;;;;13.27;7.07;;;17.20;96.70;;;;;;5066989;28;20043;-79
2022/10/09 06:16:44;;;;;;;9.35;6.50;;;17.20;96.70;;;;;;5062511;28;20533;-77
2022/10/09 06:19:15;;;;;;;9.32;7.20;;;17.20;96.70;;;;;;5081120;28;20040;-77
2022/10/09 06:21:44;;;;;;;9.43;6.50;;;17.30;96.70;;;;;;5079497;28;20099;-80
2022/10/09 06:24:19;;;;;;;11.77;8.60;;;17.40;96.70;;;;;;5096758;28;20031;-78
2022/10/09 06:26:54;;;;;;;12.20;8.80;;;17.40;96.70;;;;;;5082425;28;20131;-81
2022/10/09 06:29:22;;;;;;;13.38;10.15;;;17.30;96.70;;;;;;5083681;28;20028;-80
2022/10/09 06:31:51;;;;;;;13.73;10.68;;;17.30;96.70;;;;;;5082438;28;20097;-79
2022/10/09 06:34:19;;;;;;;14.15;12.35;;;17.40;96.70;;;;;;5083140;28;20040;-78
2022/10/09 06:36:47;;;;;;;17.35;13.07;;;17.40;96.70;;;;;;5083881;28;20066;-79
2022/10/09 06:39:15;;;;;;;16.52;12.32;;;17.40;96.70;;;;;;5080604;28;20068;-79
2022/10/09 06:41:44;;;;;;;13.38;11.68;;;17.50;96.70;;;;;;5084480;28;20051;-79
2022/10/09 06:44:31;;;;;;;24.17;18.42;;;17.60;96.70;;;;;;5085639;28;20482;-81
2022/10/09 06:46:59;;;;;;;19.83;15.15;;;17.70;96.70;;;;;;5068063;28;20414;-82
2022/10/09 06:49:27;;;;;;;16.42;13.32;;;17.80;96.70;;;;;;5084271;28;20493;-77
2022/10/09 06:51:55;;;;;;;16.77;14.27;;;17.80;96.70;;;;;;5083893;28;20048;-77
2022/10/09 06:54:23;;;;;;;15.32;13.70;;;17.90;96.70;;;;;;5076325;28;20051;-75
2022/10/09 06:56:54;;;;;;;18.95;15.00;;;17.90;96.70;;;;;;5072596;28;20056;-74
2022/10/09 06:59:22;;;;;;;17.02;14.55;;;17.90;96.70;;;;;;5076501;28;20128;-75
2022/10/09 07:01:50;;;;;;;17.23;13.88;;;17.90;96.70;;;;;;5080975;28;20056;-76
2022/10/09 07:04:18;;;;;;;15.60;12.95;;;18.00;96.70;;;;;;5063013;28;20043;-76
2022/10/09 07:06:47;;;;;;;14.93;12.00;;;18.10;96.70;;;;;;5083182;28;20032;-79
2022/10/09 07:09:15;;;;;;;14.95;11.65;;;18.20;96.70;;;;;;5079727;28;20129;-77
2022/10/09 07:11:45;;;;;;;13.48;11.90;;;18.20;96.70;;;;;;5060152;28;20534;-77
2022/10/09 07:14:15;;;;;;;12.90;10.02;;;18.20;96.70;;;;;;5082656;28;20051;-78
2022/10/09 07:16:45;;;;;;;11.75;9.68;;;18.30;96.70;;;;;;5062961;28;20044;-78
2022/10/09 07:19:14;;;;;;;10.75;9.55;;;18.30;96.70;;;;;;5078875;28;20735;-79
2022/10/09 07:21:46;;;;;;;11.85;8.90;;;18.30;96.70;;;;;;5081850;28;20046;-80
2022/10/09 07:24:15;;;;;;;10.65;9.05;;;18.20;96.70;;;;;;5082462;28;20067;-79
2022/10/09 07:26:45;;;;;;;11.45;8.85;;;18.30;96.70;;;;;;5075484;28;20044;-78
2022/10/09 07:29:16;;;;;;;10.05;8.48;;;18.30;96.70;;;;;;5080003;28;20044;-81
2022/10/09 07:31:45;;;;;;;10.50;8.63;;;18.40;96.70;;;;;;5083306;28;20040;-80
2022/10/09 07:34:13;;;;;;;10.27;9.02;;;18.40;96.70;;;;;;5083889;28;20040;-80
2022/10/09 07:36:41;;;;;;;15.98;12.63;;;18.50;96.70;;;;;;5082685;28;20047;-79
2022/10/09 07:39:09;;;;;;;17.70;12.68;;;18.50;96.70;;;;;;5080338;28;20132;-80
2022/10/09 07:41:37;;;;;;;17.27;12.88;;;18.50;96.70;;;;;;5081173;28;20052;-80
2022/10/09 07:44:06;;;;;;;19.85;13.45;;;18.60;96.70;;;;;;5083001;28;20067;-81
2022/10/09 07:46:35;;;;;;;20.90;16.42;;;18.60;96.70;;;;;;5079233;28;20508;-80
2022/10/09 07:49:04;;;;;;;16.52;12.43;;;18.70;96.70;;;;;;5085630;28;20101;-89
2022/10/09 07:51:32;;;;;;;15.98;12.48;;;18.80;96.70;;;;;;5087226;28;20150;-89
2022/10/09 07:54:01;;;;;;;16.67;12.13;;;18.90;96.70;;;;;;5068912;28;20044;-88
2022/10/09 07:56:30;;;;;;;14.27;12.68;;;18.90;96.70;;;;;;5086053;28;20108;-87
2022/10/09 07:59:00;;;;;;;15.32;12.02;;;18.90;96.70;;;;;;5068378;28;20695;-86
2022/10/09 08:01:29;;;;;;;14.43;11.55;;;19.00;96.70;;;;;;5065747;28;20077;-88
2022/10/09 08:04:01;;;;;;;16.45;12.23;;;19.10;96.70;;;;;;5087483;28;20038;-89
2022/10/09 08:06:30;;;;;;;14.48;12.35;;;19.20;96.70;;;;;;5088500;28;20490;-88
2022/10/09 08:09:00;;;;;;;13.07;10.85;;;19.30;96.70;;;;;;5083429;28;20101;-86
2022/10/09 08:11:29;;;;;;;11.88;9.82;;;19.40;96.70;;;;;;5090513;28;20038;-89
2022/10/09 08:13:58;;;;;;;12.52;9.27;;;19.40;96.70;;;;;;5090039;28;20044;-89
2022/10/09 08:16:27;;;;;;;10.77;8.10;;;19.50;96.70;;;;;;5087570;28;20086;-88
2022/10/09 08:18:57;;;;;;;12.63;9.07;;;19.70;96.70;;;;;;5089801;28;20170;-88
2022/10/09 08:21:27;;;;;;;14.20;10.23;;;19.80;96.70;;;;;;5084301;28;20039;-87
2022/10/09 08:23:57;;;;;;;10.38;9.30;;;19.90;96.70;;;;;;5089279;28;20055;-86
2022/10/09 08:26:27;;;;;;;10.95;8.82;;;20.10;96.70;;;;;;5089998;28;20055;-88
2022/10/09 08:28:57;;;;;;;8.93;7.70;;;20.30;96.70;;;;;;5088180;28;20056;-88
2022/10/09 08:31:26;;;;;;;10.93;8.20;;;20.50;96.70;;;;;;5088753;28;20111;-87
2022/10/09 08:33:57;;;;;;;11.50;8.50;;;20.60;96.70;;;;;;5088520;28;20673;-83
2022/10/09 08:36:27;;;;;;;10.70;8.43;;;20.70;96.70;;;;;;5086824;28;20134;-79
2022/10/09 08:38:56;;;;;;;11.18;8.60;;;20.70;96.70;;;;;;5078840;28;20188;-79
2022/10/09 08:41:41;;;;;;;9.77;7.80;;;20.80;96.70;;;;;;5068307;28;20131;-80
2022/10/09 08:44:15;;;;;;;12.95;7.35;;;20.80;96.70;;;;;;5083594;28;20044;-82
2022/10/09 08:47:00;;;;;;;7.13;6.43;;;20.90;96.70;;;;;;5084244;28;20056;-79
2022/10/09 08:49:36;;;;;;;9.73;7.05;;;21.10;96.70;;;;;;5084946;28;20044;-78
2022/10/09 08:52:22;;;;;;;9.50;7.30;;;21.20;96.70;;;;;;5080272;28;20512;-77
2022/10/09 08:54:51;;;;;;;8.45;6.88;;;21.30;96.70;;;;;;5082815;28;20775;-79
2022/10/09 08:57:22;;;;;;;7.75;6.35;;;21.30;96.70;;;;;;5066690;28;20048;-80
2022/10/09 08:59:50;;;;;;;7.00;6.30;;;21.30;96.70;;;;;;5083401;28;20037;-81
2022/10/09 09:02:45;;;;;;;10.82;6.68;;;21.30;96.70;;;;;;5084577;28;20036;-81
2022/10/09 09:05:26;;;;;;;7.35;5.72;;;21.40;96.70;;;;;;5084931;28;20044;-80
2022/10/09 09:08:04;;;;;;;9.18;6.88;;;21.60;96.70;;;;;;5081163;28;20063;-80
2022/10/09 09:10:39;;;;;;;10.35;6.75;;;21.80;96.70;;;;;;5089287;28;20135;-84
2022/10/09 09:13:22;;;;;;;7.80;6.20;;;22.10;96.70;;;;;;5080767;28;20044;-81
2022/10/09 09:15:57;;;;;;;10.60;6.38;;;22.10;96.70;;;;;;5080611;28;20055;-82
2022/10/09 09:18:36;;;;;;;8.85;5.88;;;22.10;96.70;;;;;;5086294;28;20056;-81
2022/10/09 09:21:24;;;;;;;7.55;6.28;;;22.10;96.70;;;;;;5086411;28;20044;-82
2022/10/09 09:23:58;;;;;;;8.95;6.05;;;22.30;96.70;;;;;;5085167;28;20055;-81
2022/10/09 09:26:26;;;;;;;8.30;6.25;;;22.50;96.70;;;;;;5083277;28;20052;-81
2022/10/09 09:28:59;;;;;;;9.40;5.53;;;22.60;96.70;;;;;;5082179;28;20033;-82
2022/10/09 09:31:34;;;;;;;8.00;6.20;;;22.70;96.70;;;;;;5083954;28;20455;-78
2022/10/09 09:34:09;;;;;;;9.68;5.70;;;22.70;96.70;;;;;;5082275;28;20724;-80
2022/10/09 09:36:41;;;;;;;7.55;6.28;;;22.60;96.70;;;;;;5082480;28;20047;-83
2022/10/09 09:39:13;;;;;;;8.48;6.45;;;22.50;96.70;;;;;;5086341;28;20122;-83
2022/10/09 09:42:13;;;;;;;8.80;6.72;;;22.60;96.70;;;;;;5084100;28;20139;-80
2022/10/09 09:44:55;;;;;;;10.70;7.25;;;22.80;96.70;;;;;;5081126;28;20040;-80
2022/10/09 09:47:29;;;;;;;10.93;7.47;;;23.10;96.70;;;;;;5096854;28;20056;-77
2022/10/09 09:49:59;;;;;;;8.43;6.32;;;23.30;96.70;;;;;;5082697;28;20127;-78
2022/10/09 09:52:33;;;;;;;8.20;6.20;;;23.30;96.70;;;;;;5109860;27;20497;-77
2022/10/09 09:55:04;;;;;;;7.03;5.68;;;23.50;96.70;;;;;;5108702;27;20044;-76
2022/10/09 09:57:38;;;;;;;8.52;5.95;;;23.40;96.70;;;;;;5082160;28;20052;-79
2022/10/09 10:00:19;;;;;;;7.35;5.85;;;23.30;96.70;;;;;;5084019;28;20047;-76
2022/10/09 10:02:48;;;;;;;6.57;5.47;;;23.30;96.70;;;;;;5082577;28;20054;-77
2022/10/09 10:05:21;;;;;;;9.10;6.40;;;23.30;96.70;;;;;;5079263;28;20464;-77
2022/10/09 10:07:50;;;;;;;6.45;5.13;;;23.40;96.70;;;;;;5083946;28;20050;-77
2022/10/09 10:10:26;;;;;;;7.22;4.90;;;23.50;96.70;;;;;;5083664;28;20169;-77
2022/10/09 10:12:57;;;;;;;5.50;4.15;;;23.60;96.70;;;;;;5081793;28;20102;-77
2022/10/09 10:15:27;;;;;;;5.32;4.18;;;23.60;96.70;;;;;;5081728;28;20047;-78
2022/10/09 10:17:59;;;;;;;7.28;4.43;;;23.50;96.70;;;;;;5099541;28;20048;-77
2022/10/09 10:20:31;;;;;;;7.13;4.60;;;23.50;96.70;;;;;;5063962;28;20545;-77
2022/10/09 10:23:00;;;;;;;8.10;4.15;;;23.70;96.70;;;;;;5080054;28;20064;-80
2022/10/09 10:25:33;;;;;;;6.22;4.28;;;23.80;96.70;;;;;;5096343;28;20402;-79
2022/10/09 10:28:06;;;;;;;5.80;4.50;;;23.90;96.70;;;;;;5081171;28;20126;-82
2022/10/09 10:30:36;;;;;;;7.00;4.55;;;23.90;96.70;;;;;;5080837;28;20605;-80
2022/10/09 10:33:14;;;;;;;8.27;4.68;;;23.90;96.70;;;;;;5083381;28;20120;-78
2022/10/09 10:35:43;;;;;;;7.18;4.65;;;23.80;96.70;;;;;;5081639;28;20040;-78
2022/10/09 10:38:16;;;;;;;7.72;4.72;;;23.90;96.70;;;;;;5079449;28;20947;-79
2022/10/09 10:40:51;;;;;;;6.68;4.75;;;24.10;96.70;;;;;;5082546;28;20028;-76
2022/10/09 10:43:30;;;;;;;8.00;5.18;;;24.30;96.70;;;;;;5083028;28;20128;-77
2022/10/09 10:46:04;;;;;;;8.38;5.28;;;24.30;96.70;;;;;;5075970;28;20072;-77
2022/10/09 10:48:41;;;;;;;7.32;4.95;;;24.40;96.70;;;;;;5074925;28;20040;-76
2022/10/09 10:51:37;;;;;;;5.20;4.18;;;24.40;96.70;;;;;;5067003;28;20066;-76
2022/10/09 10:54:29;;;;;;;6.38;5.00;;;24.50;96.70;;;;;;5080436;28;20052;-76
2022/10/09 10:57:13;;;;;;;5.07;4.50;;;24.70;96.70;;;;;;5083016;28;20130;-76
2022/10/09 10:59:49;;;;;;;5.57;4.95;;;24.90;96.70;;;;;;5080111;28;20401;-76
2022/10/09 11:02:45;;;;;;;6.93;4.93;;;24.90;96.70;;;;;;5078106;28;20420;-76
2022/10/09 11:05:26;;;;;;;6.65;5.00;;;24.70;96.70;;;;;;5083294;28;20048;-77
2022/10/09 11:08:11;;;;;;;6.20;4.72;;;24.70;96.70;;;;;;5080827;28;20053;-77
2022/10/09 11:10:51;;;;;;;6.30;4.55;;;24.70;96.70;;;;;;5078483;28;20048;-77
2022/10/09 11:13:25;;;;;;;5.32;4.30;;;24.80;96.70;;;;;;5095302;28;20035;-77
2022/10/09 11:16:05;;;;;;;5.95;4.40;;;24.70;96.70;;;;;;5077492;28;20052;-77
2022/10/09 11:18:54;;;;;;;7.30;4.35;;;24.80;96.70;;;;;;5073926;28;20046;-77
2022/10/09 11:21:49;;;;;;;4.90;4.32;;;24.80;96.70;;;;;;5075579;28;20760;-78
2022/10/09 11:24:36;;;;;;;5.60;4.00;;;24.80;96.70;;;;;;5083290;28;20155;-77
2022/10/09 11:27:12;;;;;;;5.57;3.97;;;24.80;96.70;;;;;;5081623;28;20044;-76
2022/10/09 11:29:47;;;;;;;8.05;4.53;;;24.80;96.70;;;;;;5082192;28;20052;-76
2022/10/09 11:32:19;;;;;;;6.60;4.82;;;24.80;96.70;;;;;;5083141;28;20047;-76
2022/10/09 11:34:51;;;;;;;4.78;4.22;;;25.00;96.70;;;;;;5081883;28;20424;-77
2022/10/09 11:37:24;;;;;;;4.40;4.00;;;25.00;96.70;;;;;;5078957;28;20049;-76
2022/10/09 11:39:53;;;;;;;5.40;4.25;;;25.00;96.70;;;;;;5083187;28;20448;-77
2022/10/09 11:42:24;;;;;;;5.85;3.60;;;25.00;96.70;;;;;;5086568;28;20072;-78
2022/10/09 11:45:06;;;;;;;6.10;4.32;;;25.00;96.70;;;;;;5087979;28;20097;-77
2022/10/09 11:47:43;;;;;;;5.50;4.28;;;25.00;96.70;;;;;;5080379;28;20155;-76
2022/10/09 11:50:28;;;;;;;5.95;3.60;;;25.00;96.70;;;;;;5087231;28;20048;-77
2022/10/09 11:52:59;;;;;;;4.32;3.45;;;25.10;96.70;;;;;;5085210;28;20127;-77
2022/10/09 11:55:29;;;;;;;3.45;2.95;;;25.10;96.70;;;;;;5083218;28;20518;-77
2022/10/09 11:58:08;;;;;;;4.40;2.80;;;25.20;96.70;;;;;;5087018;28;20044;-76
2022/10/09 12:00:38;;;;;;;3.88;2.75;;;25.30;96.70;;;;;;5084898;28;20039;-77
2022/10/09 12:03:19;;;;;;;4.50;3.03;;;25.30;96.70;;;;;;5087092;28;20588;-76
2022/10/09 12:05:49;;;;;;;3.25;2.63;;;25.20;96.70;;;;;;5085212;28;20048;-77
2022/10/09 12:08:25;;;;;;;2.88;2.40;;;25.20;96.70;;;;;;5086865;28;20043;-77
2022/10/09 12:10:57;;;;;;;3.42;2.05;;;25.20;96.70;;;;;;5086213;28;20456;-77
2022/10/09 12:13:40;;;;;;;3.50;2.08;;;25.30;96.70;;;;;;5080051;28;20055;-77
2022/10/09 12:16:39;;;;;;;3.75;2.28;;;25.20;96.70;;;;;;5083962;28;20120;-77
2022/10/09 12:19:15;;;;;;;2.05;1.80;;;25.20;96.70;;;;;;5081865;28;20040;-77
2022/10/09 12:21:51;;;;;;;3.25;1.80;;;25.20;96.70;;;;;;5080278;28;20275;-77
2022/10/09 12:24:22;;;;;;;2.35;1.60;;;25.10;96.70;;;;;;5084845;28;20455;-76
2022/10/09 12:26:52;;;;;;;2.28;1.42;;;25.10;96.70;;;;;;5067449;28;20060;-77
2022/10/09 12:29:26;;;;;;;3.25;1.35;;;25.10;96.70;;;;;;5080150;28;20560;-81
2022/10/09 12:32:03;;;;;;;2.58;1.60;;;25.00;96.70;;;;;;5086825;28;20135;-85
2022/10/09 12:34:37;;;;;;;4.10;1.67;;;25.00;96.70;;;;;;5088616;28;20043;-86
2022/10/09 12:37:14;;;;;;;1.90;1.45;;;25.00;96.70;;;;;;5089123;28;20048;-86
2022/10/09 12:39:44;;;;;;;1.88;1.35;;;25.00;96.70;;;;;;5080533;28;20402;-85
2022/10/09 12:42:19;;;;;;;2.50;1.60;;;25.20;96.70;;;;;;5088635;28;20044;-84
2022/10/09 12:44:49;;;;;;;2.75;1.35;;;25.20;96.70;;;;;;5082222;28;20079;-84
2022/10/09 12:47:24;;;;;;;2.00;1.60;;;25.30;96.70;;;;;;5073092;28;20463;-82
2022/10/09 12:49:57;;;;;;;2.35;1.35;;;25.40;96.70;;;;;;5089314;28;20036;-85
2022/10/09 12:52:26;;;;;;;2.78;1.02;;;25.40;96.70;;;;;;5085657;28;20044;-76
2022/10/09 12:54:54;;;;;;;1.73;1.00;;;25.40;96.70;;;;;;5067161;28;20044;-76
2022/10/09 12:57:23;;;;;;;3.60;1.00;;;25.30;96.70;;;;;;5084966;28;20048;-76
2022/10/09 12:59:55;;;;;;;2.30;1.13;;;25.10;96.70;;;;;;5083562;28;20249;-75
2022/10/09 13:02:25;;;;;;;2.70;1.30;;;25.10;96.70;;;;;;5079605;28;20070;-75
2022/10/09 13:04:58;;;;;;;1.60;1.17;;;25.00;96.70;;;;;;5084635;28;20065;-76
2022/10/09 13:07:28;;;;;;;1.92;1.40;;;24.90;96.70;;;;;;5084271;28;20113;-75